createdAt,value
2023-03-17T00:02:30.837Z,40.25
2023-03-17T00:05:35.103Z,40.41
2023-03-17T00:08:54.109Z,39.34
2023-03-17T00:12:00.067Z,38.93
2023-03-17T00:15:15.771Z,39.13
2023-03-17T00:18:19.953Z,40.10
2023-03-17T00:21:38.839Z,40.62
2023-03-17T00:24:40.922Z,40.97
2023-03-17T00:27:59.775Z,40.63
2023-03-17T00:31:11.600Z,40.39
2023-03-17T00:34:30.166Z,41.00
2023-03-17T00:37:46.763Z,41.27
2023-03-17T00:41:17.985Z,42.69
2023-03-17T00:44:27.698Z,43.60
2023-03-17T00:47:36.542Z,43.96
2023-03-17T00:50:44.717Z,43.40
2023-03-17T00:54:00.862Z,43.12
2023-03-17T00:57:09.706Z,42.73
2023-03-17T01:00:31.068Z,43.30
2023-03-17T01:03:46.686Z,41.78
2023-03-17T01:06:55.496Z,42.45
2023-03-17T01:10:19.765Z,40.21
2023-03-17T01:13:29.111Z,40.61
2023-03-17T01:16:45.001Z,40.48
2023-03-17T01:19:47.329Z,41.63
2023-03-17T01:23:02.769Z,41.43
2023-03-17T01:26:11.415Z,41.35
2023-03-17T01:29:19.721Z,42.80
2023-03-17T01:32:34.784Z,41.62
2023-03-17T01:35:46.812Z,42.22
2023-03-17T01:39:02.334Z,42.39
2023-03-17T01:42:11.854Z,41.87
2023-03-17T01:45:40.281Z,42.08
2023-03-17T01:49:08.718Z,42.61
2023-03-17T01:52:21.769Z,44.03
2023-03-17T01:55:36.749Z,43.20
2023-03-17T01:58:49.038Z,42.60
2023-03-17T02:02:02.761Z,44.10
2023-03-17T02:05:20.745Z,42.69
2023-03-17T02:08:28.783Z,43.92
2023-03-17T02:11:38.658Z,43.82
2023-03-17T02:14:46.781Z,44.59
2023-03-17T02:18:02.761Z,44.63
2023-03-17T02:25:02.756Z,45.52
2023-03-17T02:28:10.835Z,46.81
2023-03-17T02:31:25.850Z,46.46
2023-03-17T02:34:34.624Z,48.31
2023-03-17T02:37:43.816Z,49.55
2023-03-17T02:40:58.761Z,49.33
2023-03-17T02:44:07.931Z,49.18
2023-03-17T02:47:17.804Z,49.88
2023-03-17T02:50:29.123Z,50.38
2023-03-17T02:53:37.796Z,49.68
2023-03-17T02:56:52.837Z,50.06
2023-03-17T02:59:55.006Z,50.24
2023-03-17T03:03:10.898Z,50.43
2023-03-17T03:06:22.921Z,51.02
2023-03-17T03:09:37.785Z,51.31
2023-03-17T03:12:46.781Z,50.63
2023-03-17T03:16:01.907Z,51.54
2023-03-17T03:19:03.910Z,51.69
2023-03-17T03:22:19.089Z,52.30
2023-03-17T03:25:20.882Z,51.98
2023-03-17T03:28:35.791Z,51.82
2023-03-17T03:31:50.928Z,52.12
2023-03-17T03:34:53.194Z,52.11
2023-03-17T03:38:15.798Z,52.75
2023-03-17T03:41:24.731Z,52.45
2023-03-17T03:44:33.031Z,52.86
2023-03-17T03:47:47.822Z,53.01
2023-03-17T03:50:57.867Z,53.64
2023-03-17T03:54:12.798Z,52.66
2023-03-17T03:57:14.670Z,52.48
2023-03-17T04:00:30.096Z,52.69
2023-03-17T04:03:38.805Z,54.29
2023-03-17T04:06:53.862Z,54.85
2023-03-17T04:10:01.797Z,54.89
2023-03-17T04:13:17.040Z,55.26
2023-03-17T04:16:18.865Z,55.61
2023-03-17T04:22:48.844Z,55.63
2023-03-17T04:26:03.794Z,55.72
2023-03-17T04:29:11.809Z,55.62
2023-03-17T04:32:27.258Z,56.00
2023-03-17T04:35:35.854Z,55.87
2023-03-17T04:38:51.449Z,55.59
2023-03-17T04:42:06.031Z,55.75
2023-03-17T04:45:18.327Z,56.05
2023-03-17T04:48:32.850Z,56.28
2023-03-17T04:51:42.805Z,56.39
2023-03-17T04:54:51.353Z,57.67
2023-03-17T04:57:59.825Z,56.40
2023-03-17T05:01:14.850Z,56.62
2023-03-17T05:04:28.867Z,55.60
2023-03-17T05:07:49.084Z,55.81
2023-03-17T05:11:05.946Z,55.48
2023-03-17T05:14:14.870Z,56.38
2023-03-17T05:17:23.550Z,56.44
2023-03-17T05:20:32.336Z,56.76
2023-03-17T05:23:46.831Z,57.19
2023-03-17T05:27:01.854Z,56.55
2023-03-17T05:30:11.242Z,56.26
2023-03-17T05:33:25.901Z,55.87
2023-03-17T05:36:34.814Z,56.33
2023-03-17T05:39:50.146Z,55.50
2023-03-17T05:43:04.905Z,55.15
2023-03-17T05:46:07.148Z,54.89
2023-03-17T05:49:22.884Z,54.49
2023-03-17T05:52:31.620Z,54.14
2023-03-17T05:55:39.849Z,53.31
2023-03-17T05:58:54.912Z,53.45
2023-03-17T06:02:05.906Z,53.94
2023-03-17T06:05:21.340Z,53.20
2023-03-17T06:08:23.384Z,52.91
2023-03-17T06:11:38.846Z,52.64
2023-03-17T06:14:48.585Z,53.02
2023-03-17T06:17:59.174Z,53.18
2023-03-17T06:21:14.881Z,53.03
2023-03-17T06:24:23.361Z,52.34
2023-03-17T06:27:38.869Z,52.19
2023-03-17T06:30:53.990Z,51.48
2023-03-17T06:34:25.243Z,51.08
2023-03-17T06:37:27.824Z,49.64
2023-03-17T06:40:49.893Z,48.18
2023-03-17T06:44:04.930Z,47.88
2023-03-17T06:47:19.909Z,48.26
2023-03-17T06:53:41.861Z,46.87
2023-03-17T06:57:15.916Z,47.07
2023-03-17T07:00:21.465Z,45.28
2023-03-17T07:03:38.444Z,44.60
2023-03-17T07:07:20.958Z,44.17
2023-03-17T07:10:29.530Z,44.11
2023-03-17T07:13:43.850Z,42.54
2023-03-17T07:16:57.902Z,42.95
2023-03-17T07:20:13.947Z,42.61
2023-03-17T07:23:29.125Z,42.29
2023-03-17T07:26:31.680Z,42.29
2023-03-17T07:29:47.994Z,42.15
2023-03-17T07:32:49.955Z,42.35
2023-03-17T07:36:05.008Z,41.83
2023-03-17T07:39:14.469Z,43.57
2023-03-17T07:42:52.922Z,41.51
2023-03-17T07:45:55.357Z,41.62
2023-03-17T07:49:09.979Z,40.65
2023-03-17T07:52:13.089Z,40.70
2023-03-17T07:55:29.999Z,40.53
2023-03-17T07:58:57.015Z,39.94
2023-03-17T08:02:14.132Z,41.45
2023-03-17T08:05:23.055Z,40.17
2023-03-17T08:08:32.006Z,38.84
2023-03-17T08:11:43.119Z,39.25
2023-03-17T08:14:54.007Z,39.40
2023-03-17T08:18:11.884Z,38.29
2023-03-17T08:21:20.718Z,37.44
2023-03-17T08:24:37.329Z,37.26
2023-03-17T08:27:53.906Z,37.63
2023-03-17T08:38:13.044Z,34.72
2023-03-17T08:41:49.855Z,34.88
2023-03-17T08:59:29.117Z,32.41
2023-03-17T09:06:32.716Z,32.24
2023-03-17T09:20:16.590Z,30.96
2023-03-17T09:23:46.886Z,30.62
2023-03-17T09:34:04.390Z,29.41
2023-03-17T09:37:16.664Z,29.93
2023-03-17T10:03:14.047Z,28.26
2023-03-17T10:11:01.506Z,29.40
2023-03-17T10:22:57.133Z,29.24
2023-03-17T10:26:46.218Z,28.92
2023-03-17T10:41:19.758Z,28.51
2023-03-17T10:45:17.542Z,28.21
2023-03-17T10:49:22.197Z,27.71
2023-03-17T11:05:06.907Z,27.14
2023-03-17T11:08:25.907Z,27.18
2023-03-17T11:11:40.176Z,27.39
2023-03-17T11:14:56.929Z,27.00
2023-03-17T11:18:01.443Z,27.24
2023-03-17T11:21:22.947Z,26.56
2023-03-17T11:24:34.130Z,26.90
2023-03-17T11:27:51.946Z,26.54
2023-03-17T11:31:16.818Z,26.15
2023-03-17T11:34:45.253Z,26.36
2023-03-17T11:38:21.382Z,28.97
2023-03-17T11:41:56.219Z,18.75
2023-03-17T11:45:33.462Z,14.63
2023-03-17T11:49:17.953Z,15.53
2023-03-17T11:52:44.930Z,13.17
2023-03-17T11:56:00.444Z,11.58
2023-03-17T11:59:12.974Z,11.88
2023-03-17T12:02:44.936Z,13.11
2023-03-17T12:05:52.227Z,13.98
2023-03-17T12:09:15.027Z,13.05
2023-03-17T12:12:28.240Z,12.44
2023-03-17T12:15:53.208Z,13.87
2023-03-17T12:19:21.434Z,12.15
2023-03-17T12:22:37.498Z,13.12
2023-03-17T12:26:03.278Z,12.05
2023-03-17T12:29:20.588Z,13.75
2023-03-17T12:32:35.517Z,14.90
